createdAt,value
2023-02-25T00:01:57.838Z,52.65
2023-02-25T00:04:31.728Z,41.78
2023-02-25T00:07:01.553Z,36.97
2023-02-25T00:09:33.011Z,38.90
2023-02-25T00:12:01.438Z,42.60
2023-02-25T00:14:30.192Z,35.47
2023-02-25T00:16:58.600Z,44.30
2023-02-25T00:19:27.743Z,40.38
2023-02-25T00:22:02.939Z,38.63
2023-02-25T00:24:31.312Z,38.03
2023-02-25T00:26:59.589Z,40.53
2023-02-25T00:29:27.966Z,43.30
2023-02-25T00:31:56.408Z,36.80
2023-02-25T00:34:24.800Z,40.25
2023-02-25T00:36:55.973Z,37.63
2023-02-25T00:39:42.359Z,37.13
2023-02-25T00:42:15.714Z,38.60
2023-02-25T00:44:49.294Z,40.83
2023-02-25T00:47:20.177Z,48.03
2023-02-25T00:49:49.356Z,32.47
2023-02-25T00:52:18.098Z,37.85
2023-02-25T00:54:49.637Z,36.22
2023-02-25T00:57:17.916Z,49.03
2023-02-25T00:59:46.109Z,32.30
2023-02-25T01:02:14.673Z,37.55
2023-02-25T01:04:43.458Z,38.72
2023-02-25T01:07:11.881Z,39.90
2023-02-25T01:09:40.505Z,38.78
2023-02-25T01:12:10.805Z,38.25
2023-02-25T01:14:39.095Z,40.00
2023-02-25T01:17:09.879Z,39.45
2023-02-25T01:19:38.089Z,42.47
2023-02-25T01:22:07.321Z,41.50
2023-02-25T01:24:35.829Z,35.58
2023-02-25T01:27:06.036Z,40.05
2023-02-25T01:29:39.209Z,42.03
2023-02-25T01:32:10.145Z,35.63
2023-02-25T01:34:40.082Z,36.92
2023-02-25T01:37:10.652Z,36.90
2023-02-25T01:39:42.424Z,34.67
2023-02-25T01:42:15.304Z,37.05
2023-02-25T01:45:17.409Z,37.47
2023-02-25T01:47:50.991Z,33.95
2023-02-25T01:50:19.999Z,33.78
2023-02-25T01:52:49.412Z,31.83
2023-02-25T01:55:17.995Z,44.03
2023-02-25T01:57:46.877Z,43.70
2023-02-25T02:00:16.973Z,29.35
2023-02-25T02:02:49.474Z,32.22
2023-02-25T02:05:18.772Z,36.53
2023-02-25T02:07:48.605Z,37.22
2023-02-25T02:10:17.737Z,30.38
2023-02-25T02:12:48.595Z,30.10
2023-02-25T02:15:17.452Z,34.17
2023-02-25T02:17:52.626Z,28.13
2023-02-25T02:20:23.869Z,33.33
2023-02-25T02:23:22.187Z,35.13
2023-02-25T02:26:33.354Z,30.15
2023-02-25T02:29:25.638Z,36.08
2023-02-25T02:32:09.266Z,30.90
2023-02-25T02:34:46.501Z,32.03
2023-02-25T02:37:27.317Z,27.08
2023-02-25T02:40:08.972Z,34.28
2023-02-25T02:42:43.776Z,37.85
2023-02-25T02:45:21.118Z,29.17
2023-02-25T02:47:57.391Z,31.50
2023-02-25T02:50:30.888Z,36.88
2023-02-25T02:53:03.958Z,32.22
2023-02-25T02:55:37.722Z,41.55
2023-02-25T02:58:11.023Z,37.40
2023-02-25T03:00:42.318Z,37.58
2023-02-25T03:03:16.597Z,37.15
2023-02-25T03:05:50.032Z,34.70
2023-02-25T03:08:22.263Z,34.55
2023-02-25T03:10:50.499Z,29.90
2023-02-25T03:13:19.050Z,35.58
2023-02-25T03:15:49.202Z,33.05
2023-02-25T03:18:24.915Z,35.83
2023-02-25T03:20:55.151Z,30.73
2023-02-25T03:23:28.197Z,32.03
2023-02-25T03:26:01.722Z,34.85
2023-02-25T03:28:34.976Z,33.53
2023-02-25T03:31:07.574Z,31.42
2023-02-25T03:33:41.196Z,29.70
2023-02-25T03:36:14.793Z,32.63
2023-02-25T03:38:47.680Z,33.33
2023-02-25T03:41:18.036Z,31.77
2023-02-25T03:43:50.474Z,22.70
2023-02-25T03:46:21.373Z,28.17
2023-02-25T03:48:54.540Z,26.20
2023-02-25T03:51:28.406Z,27.23
2023-02-25T03:53:56.931Z,24.67
2023-02-25T03:56:31.206Z,24.30
2023-02-25T03:58:59.620Z,26.30
2023-02-25T04:01:31.434Z,24.75
2023-02-25T04:04:03.181Z,26.45
2023-02-25T04:06:31.949Z,27.13
2023-02-25T04:09:00.357Z,29.30
2023-02-25T04:11:29.858Z,21.48
2023-02-25T04:13:58.132Z,27.42
2023-02-25T04:16:28.413Z,24.58
2023-02-25T04:19:13.217Z,23.90
2023-02-25T04:21:53.368Z,19.85
2023-02-25T04:24:21.620Z,28.45
2023-02-25T04:27:01.808Z,25.00
2023-02-25T04:33:14.358Z,24.50
2023-02-25T04:35:45.896Z,24.02
2023-02-25T04:38:39.791Z,24.30
2023-02-25T04:41:40.528Z,22.25
2023-02-25T04:53:31.947Z,28.95
2023-02-25T05:08:45.715Z,26.27
2023-02-25T05:14:10.835Z,24.40
2023-02-25T05:24:24.903Z,19.55
2023-02-25T05:30:45.136Z,21.98
2023-02-25T05:33:52.272Z,20.90
2023-02-25T05:40:22.069Z,22.00
2023-02-25T05:43:00.572Z,18.98
2023-02-25T05:49:23.846Z,19.05
2023-02-25T05:52:47.322Z,23.50
2023-02-25T06:08:51.293Z,24.55
2023-02-25T06:30:02.672Z,27.67
2023-02-25T06:41:35.033Z,30.65
2023-02-25T06:44:48.853Z,32.35
2023-02-25T06:51:36.979Z,33.33
2023-02-25T06:54:05.809Z,33.83
2023-02-25T07:00:13.100Z,36.25
2023-02-25T07:02:47.610Z,34.13
2023-02-25T07:10:17.621Z,32.30
2023-02-25T07:13:39.199Z,37.78
2023-02-25T07:16:44.365Z,34.55
2023-02-25T07:29:17.078Z,33.55
2023-02-25T07:44:34.873Z,32.92
2023-02-25T08:04:26.860Z,38.00
2023-02-25T08:12:20.834Z,35.22
2023-02-25T08:16:01.961Z,41.08
2023-02-25T08:18:32.179Z,37.90
2023-02-25T08:21:49.403Z,37.72
2023-02-25T08:28:38.236Z,37.70
2023-02-25T08:31:49.145Z,35.10
2023-02-25T08:34:26.075Z,44.75
2023-02-25T08:36:56.883Z,35.42
2023-02-25T08:39:25.240Z,37.50
2023-02-25T08:41:53.504Z,35.60
2023-02-25T08:47:59.721Z,34.58
2023-02-25T08:50:40.773Z,35.10
2023-02-25T08:53:09.278Z,31.33
2023-02-25T08:56:27.788Z,32.20
2023-02-25T08:59:47.897Z,34.28
2023-02-25T09:03:24.113Z,31.92
2023-02-25T09:06:54.804Z,32.60
2023-02-25T09:09:28.638Z,33.30
2023-02-25T09:12:00.445Z,31.80
2023-02-25T09:14:35.164Z,36.67
2023-02-25T09:17:09.451Z,35.08
2023-02-25T09:19:39.088Z,37.92
2023-02-25T09:22:42.496Z,31.65
2023-02-25T09:25:53.424Z,33.55
2023-02-25T09:28:24.703Z,29.73
2023-02-25T09:30:53.334Z,33.42
2023-02-25T09:33:25.452Z,31.15
2023-02-25T09:36:10.980Z,30.60
2023-02-25T09:38:54.284Z,28.10
2023-02-25T09:41:44.665Z,25.95
2023-02-25T09:44:21.654Z,26.33
2023-02-25T09:47:07.754Z,21.42
2023-02-25T09:49:39.766Z,15.02
2023-02-25T09:52:16.973Z,17.10
2023-02-25T09:54:47.688Z,15.40
2023-02-25T09:57:22.586Z,20.67
2023-02-25T09:59:53.683Z,23.85
2023-02-25T10:02:28.519Z,18.27
2023-02-25T10:05:50.907Z,19.15
2023-02-25T10:08:23.419Z,17.63
2023-02-25T10:11:03.882Z,21.48
2023-02-25T10:13:45.550Z,19.63
2023-02-25T10:16:37.140Z,21.35
2023-02-25T10:19:19.802Z,22.38
2023-02-25T10:22:18.511Z,22.58
2023-02-25T10:27:55.203Z,25.42
2023-02-25T10:30:47.059Z,23.92
2023-02-25T10:33:21.464Z,25.50
2023-02-25T10:35:59.919Z,24.65
2023-02-25T10:38:28.365Z,13.65
2023-02-25T10:41:04.516Z,11.00
2023-02-25T10:43:52.294Z,15.13
2023-02-25T10:46:33.318Z,11.50
2023-02-25T10:49:26.381Z,9.85
2023-02-25T10:52:04.178Z,7.53
2023-02-25T10:54:55.529Z,11.45
2023-02-25T10:57:27.538Z,19.13
2023-02-25T11:00:02.571Z,13.65
2023-02-25T11:02:41.070Z,18.52
2023-02-25T11:05:31.569Z,14.27
2023-02-25T11:08:00.083Z,14.00
2023-02-25T11:11:00.996Z,10.95
2023-02-25T11:13:32.512Z,15.35
2023-02-25T11:16:06.790Z,12.13
2023-02-25T11:18:38.317Z,12.90
2023-02-25T11:21:08.365Z,15.77
2023-02-25T11:23:41.101Z,15.20
2023-02-25T11:26:15.011Z,14.73
2023-02-25T11:28:48.009Z,16.35
2023-02-25T11:31:20.119Z,14.07
2023-02-25T11:34:07.465Z,16.92
2023-02-25T11:36:37.255Z,12.73
2023-02-25T11:39:17.674Z,13.07
2023-02-25T11:41:52.088Z,19.50
2023-02-25T11:44:30.434Z,16.05
2023-02-25T11:47:04.462Z,13.63
2023-02-25T11:49:50.751Z,16.02
2023-02-25T11:52:26.582Z,14.57
2023-02-25T11:55:18.840Z,17.15
2023-02-25T11:58:00.007Z,16.33
2023-02-25T12:00:36.725Z,17.45
2023-02-25T12:03:28.985Z,14.80
2023-02-25T12:06:11.650Z,16.98
2023-02-25T12:08:59.504Z,15.40
2023-02-25T12:11:53.918Z,15.60
2023-02-25T12:14:59.004Z,12.23
2023-02-25T12:21:19.425Z,13.18
2023-02-25T12:24:37.206Z,15.55
2023-02-25T12:27:47.796Z,12.77
2023-02-25T12:31:00.964Z,13.73
2023-02-25T12:33:47.000Z,15.15
2023-02-25T12:36:46.045Z,14.20
2023-02-25T12:39:31.726Z,9.27
2023-02-25T12:42:12.385Z,6.55
2023-02-25T12:45:35.475Z,6.85
2023-02-25T12:48:30.105Z,7.53
2023-02-25T12:51:14.959Z,6.25
2023-02-25T12:53:54.665Z,8.40
2023-02-25T12:56:59.583Z,14.30
2023-02-25T12:59:51.284Z,6.05
2023-02-25T13:02:51.503Z,7.55
2023-02-25T13:05:43.157Z,7.03
2023-02-25T13:08:30.884Z,6.82
2023-02-25T13:11:05.074Z,6.70
2023-02-25T13:13:54.970Z,7.38
2023-02-25T13:16:42.410Z,6.60
2023-02-25T13:19:37.360Z,7.63
2023-02-25T13:22:18.256Z,10.20
2023-02-25T13:24:51.145Z,7.95
2023-02-25T13:27:52.240Z,7.75
2023-02-25T13:30:30.916Z,8.82
2023-02-25T13:33:15.958Z,7.93
2023-02-25T13:35:54.847Z,8.32
2023-02-25T13:38:37.886Z,8.50
2023-02-25T13:41:29.052Z,6.05
2023-02-25T13:44:28.305Z,6.00
2023-02-25T13:47:38.645Z,6.63
2023-02-25T13:50:49.494Z,6.25
2023-02-25T13:53:45.406Z,5.80
2023-02-25T13:56:43.804Z,7.60
2023-02-25T13:59:29.966Z,5.35
2023-02-25T14:02:15.168Z,4.60
2023-02-25T14:05:05.212Z,6.30
2023-02-25T14:07:56.062Z,5.45
2023-02-25T14:10:39.017Z,8.40
2023-02-25T14:13:52.692Z,4.22
2023-02-25T14:16:44.923Z,5.97
2023-02-25T14:19:38.229Z,6.90
2023-02-25T14:22:39.581Z,6.53
2023-02-25T14:25:22.088Z,5.80
2023-02-25T14:28:01.277Z,8.25
2023-02-25T14:30:39.766Z,5.53
2023-02-25T14:33:31.959Z,7.80
2023-02-25T14:36:26.834Z,6.80
2023-02-25T14:39:23.769Z,6.18
2023-02-25T14:42:18.750Z,6.50
2023-02-25T14:44:57.428Z,7.25
2023-02-25T14:47:53.865Z,6.10
2023-02-25T14:50:26.693Z,7.95
2023-02-25T14:53:23.227Z,5.78
2023-02-25T15:00:14.534Z,9.75
2023-02-25T15:03:04.247Z,12.77
2023-02-25T15:05:42.625Z,10.70
2023-02-25T15:08:29.157Z,11.25
2023-02-25T15:11:25.978Z,10.55
2023-02-25T15:14:37.241Z,11.15
2023-02-25T15:17:48.078Z,12.52
2023-02-25T15:20:33.113Z,11.25
2023-02-25T15:23:14.618Z,9.73
2023-02-25T15:25:49.959Z,10.77
2023-02-25T15:28:54.963Z,10.77
2023-02-25T15:31:41.758Z,10.90
2023-02-25T15:34:35.681Z,9.93
2023-02-25T15:37:33.966Z,11.25
2023-02-25T15:40:52.254Z,14.93
2023-02-25T15:43:43.814Z,12.95
2023-02-25T15:46:48.394Z,13.07
2023-02-25T15:49:37.796Z,10.20
2023-02-25T15:52:07.593Z,12.52
2023-02-25T15:55:14.866Z,9.40
2023-02-25T15:57:44.432Z,15.40
2023-02-25T16:01:01.625Z,11.93
2023-02-25T16:03:57.042Z,11.15
2023-02-25T16:06:32.497Z,12.85
2023-02-25T16:09:08.137Z,12.55
2023-02-25T16:11:40.411Z,12.00
2023-02-25T16:14:15.568Z,12.30
2023-02-25T16:16:50.815Z,10.20
2023-02-25T16:19:22.601Z,11.77
2023-02-25T16:21:55.116Z,14.90
2023-02-25T16:24:25.062Z,10.98
2023-02-25T16:27:00.364Z,12.68
2023-02-25T16:29:45.981Z,11.88
2023-02-25T16:32:27.589Z,12.10
2023-02-25T16:35:02.503Z,11.98
2023-02-25T16:37:37.361Z,14.55
2023-02-25T16:40:25.423Z,12.68
2023-02-25T16:42:56.642Z,14.93
2023-02-25T16:45:32.427Z,14.70
2023-02-25T16:48:05.648Z,12.50
2023-02-25T16:50:41.365Z,14.65
2023-02-25T16:53:19.493Z,11.73
2023-02-25T16:55:55.500Z,15.43
2023-02-25T16:58:27.997Z,15.15
2023-02-25T17:00:58.395Z,14.55
2023-02-25T17:03:30.993Z,17.90
2023-02-25T17:06:06.496Z,15.27
2023-02-25T17:08:39.781Z,19.70
2023-02-25T17:11:08.204Z,21.98
2023-02-25T17:13:41.729Z,20.98
2023-02-25T17:16:21.373Z,16.73
2023-02-25T17:18:54.129Z,17.48
2023-02-25T17:21:27.491Z,16.63
2023-02-25T17:23:56.958Z,19.67
2023-02-25T17:26:26.044Z,16.92
2023-02-25T17:28:59.521Z,23.65
2023-02-25T17:31:29.545Z,26.10
2023-02-25T17:34:00.844Z,22.15
2023-02-25T17:36:31.582Z,22.95
2023-02-25T17:39:02.657Z,25.58
2023-02-25T17:41:35.545Z,18.42
2023-02-25T17:44:05.765Z,28.67
2023-02-25T17:46:38.175Z,30.40
2023-02-25T17:49:19.964Z,27.70
2023-02-25T17:51:54.362Z,28.35
2023-02-25T17:54:24.861Z,27.67
2023-02-25T17:56:58.748Z,21.88
2023-02-25T17:59:38.274Z,21.10
2023-02-25T18:02:32.621Z,22.75
2023-02-25T18:05:22.331Z,22.13
2023-02-25T18:08:11.167Z,27.88
2023-02-25T18:10:48.442Z,20.25
2023-02-25T18:13:28.032Z,20.40
2023-02-25T18:16:42.331Z,23.73
2023-02-25T18:19:28.975Z,21.27
2023-02-25T18:21:57.308Z,20.80
2023-02-25T18:24:29.275Z,25.05
2023-02-25T18:27:19.878Z,26.70
2023-02-25T18:29:48.244Z,20.13
2023-02-25T18:32:18.123Z,21.45
2023-02-25T18:34:46.467Z,22.67
2023-02-25T18:37:17.455Z,21.55
2023-02-25T18:39:47.360Z,27.70
2023-02-25T18:42:16.806Z,24.45
2023-02-25T18:44:52.812Z,22.55
2023-02-25T18:47:40.110Z,24.48
2023-02-25T18:50:10.074Z,26.45
2023-02-25T18:52:42.770Z,22.92
2023-02-25T18:55:16.863Z,29.55
2023-02-25T18:57:45.575Z,23.65
2023-02-25T19:00:15.237Z,28.08
2023-02-25T19:02:49.439Z,26.45
2023-02-25T19:05:18.858Z,29.00
2023-02-25T19:07:47.394Z,31.95
2023-02-25T19:10:18.705Z,27.23
2023-02-25T19:12:49.516Z,30.30
2023-02-25T19:15:27.652Z,26.70
2023-02-25T19:17:57.732Z,32.78
2023-02-25T19:20:26.221Z,28.13
2023-02-25T19:22:54.945Z,28.30
2023-02-25T19:25:25.996Z,29.02
2023-02-25T19:27:56.473Z,22.23
2023-02-25T19:30:27.312Z,23.63
2023-02-25T19:33:04.851Z,19.23
2023-02-25T19:35:36.135Z,18.42
2023-02-25T19:38:04.967Z,18.48
2023-02-25T19:40:42.949Z,23.40
2023-02-25T19:43:12.050Z,18.40
2023-02-25T19:45:41.473Z,21.80
2023-02-25T19:48:11.861Z,18.52
2023-02-25T19:50:42.232Z,18.27
2023-02-25T19:53:11.286Z,19.20
2023-02-25T19:55:44.296Z,20.25
2023-02-25T19:58:15.520Z,21.75
2023-02-25T20:04:14.264Z,20.58
2023-02-25T20:06:53.066Z,17.50
2023-02-25T20:12:53.254Z,16.20
2023-02-25T20:15:41.702Z,13.15
2023-02-25T20:18:15.099Z,19.15
2023-02-25T20:21:33.138Z,15.48
2023-02-25T20:24:19.898Z,14.52
2023-02-25T20:27:07.490Z,13.32
2023-02-25T20:29:47.107Z,13.57
2023-02-25T20:32:16.398Z,12.77
2023-02-25T20:34:45.178Z,15.02
2023-02-25T20:37:20.241Z,15.18
2023-02-25T20:39:55.025Z,13.85
2023-02-25T20:42:34.440Z,16.60
2023-02-25T20:45:03.322Z,13.55
2023-02-25T20:47:35.057Z,14.07
2023-02-25T20:50:04.720Z,15.02
2023-02-25T20:52:57.612Z,14.55
2023-02-25T20:55:40.880Z,18.85
2023-02-25T20:58:10.891Z,15.88
2023-02-25T21:00:39.462Z,15.63
2023-02-25T21:03:09.020Z,14.80
2023-02-25T21:05:37.401Z,15.13
2023-02-25T21:08:07.372Z,16.73
2023-02-25T21:10:35.974Z,14.32
2023-02-25T21:13:09.388Z,12.93
2023-02-25T21:15:52.889Z,11.55
2023-02-25T21:18:49.851Z,15.05
2023-02-25T21:24:37.240Z,10.23
2023-02-25T21:27:29.725Z,10.23
2023-02-25T21:30:11.238Z,8.75
2023-02-25T21:32:39.771Z,10.82
2023-02-25T21:35:11.981Z,12.05
2023-02-25T21:38:47.628Z,10.30
2023-02-25T21:41:36.864Z,8.93
2023-02-25T21:44:10.476Z,12.27
2023-02-25T21:47:13.252Z,10.82
2023-02-25T21:54:43.956Z,9.57
2023-02-25T22:04:30.249Z,10.88
2023-02-25T22:07:32.048Z,12.80
2023-02-25T22:10:35.440Z,15.30
2023-02-25T22:13:50.407Z,11.27
2023-02-25T22:16:33.023Z,12.02
2023-02-25T22:19:15.166Z,9.68
2023-02-25T22:21:57.027Z,7.75
2023-02-25T22:24:51.756Z,8.57
2023-02-25T22:34:49.570Z,10.45
2023-02-25T22:37:17.801Z,10.95
2023-02-25T22:40:43.476Z,11.98
2023-02-25T22:43:30.367Z,10.75
2023-02-25T22:49:58.047Z,11.25
2023-02-25T22:52:56.385Z,13.38
2023-02-25T22:55:52.387Z,11.75
2023-02-25T22:58:30.453Z,12.07
2023-02-25T23:00:59.142Z,10.45
2023-02-25T23:06:44.785Z,11.45
2023-02-25T23:09:49.004Z,12.43
2023-02-25T23:12:21.542Z,14.70
2023-02-25T23:14:49.856Z,14.25
2023-02-25T23:17:32.431Z,10.68
2023-02-25T23:20:10.394Z,9.40
2023-02-25T23:22:49.656Z,9.63
2023-02-25T23:25:20.588Z,9.85
2023-02-25T23:28:00.490Z,9.68
2023-02-25T23:30:29.465Z,11.98
2023-02-25T23:33:01.028Z,13.25
2023-02-25T23:35:29.490Z,9.50
2023-02-25T23:38:02.688Z,14.10
2023-02-25T23:40:30.960Z,8.82
2023-02-25T23:43:02.508Z,10.77
2023-02-25T23:45:31.194Z,9.38
2023-02-25T23:48:00.899Z,10.32
2023-02-25T23:50:29.285Z,10.50
2023-02-25T23:52:59.080Z,6.65
2023-02-25T23:55:29.216Z,8.88
2023-02-25T23:57:57.543Z,10.23
